الصفحة الرئيسية
METAR-TAF:

METAR-TAF

مطار :

Futuna, فرنسا

دائرة عرض: 14-19S, خط طول: 178-07W, ارتفاع: 6 متر

METAR: مفقودة

زمن: 17:34 (05:34 UTC)

توقعات

تاريخ ووقت الإصدار 5ساعات و 18 دقيقة قبل الساعة 00:16UTC
التوقعات صالحة من06 الساعة 00 UTC إلى 06 الساعة 24 UTC
ريح 10 عقدة من الغرب/الجنوب الغربي
الرؤية 10 كم أو أكثر
غيوم متفرقة على ارتفاع 2500 قدم
غيوم متفرقة على ارتفاع 3500 قدم
مؤقت
من 06 الساعة 06 UTC إلى 06 الساعة 24 UTC
الرؤية: 4000 متر
غيوم مفككة على ارتفاع 1000 قدم
غيوم متفرقة على ارتفاع 2000 قدم, مزن ركامية عمودية.
غيوم قليلة على ارتفاع 3000 قدم, مزنة ركامية.
زخات من المطر

TAF: NLWF 060016Z 0600/0624 25010KT 9999 SCT025 SCT035 TEMPO 0606/0624 4000 SHRA BKN010 SCT020TCU FEW030CB

أرصاد الطقس والتوقعات من أكثر من 4000 مطار (تقارير الطقس للمطار METAR والتنبؤ بالطقس بالمطارTAF).

المحطات المتاحة هي النقط الصفراء والحمراء على الخريطة.

حرك المؤشر فوق النقطة لمعرفة اسم المحطة.

ثم انقر لمعرفة أرصاد وتوقعات الطقس.

لتغيير الخارطة: اضغط على الأزرار الخضراء مع رمز الصليب الأسود للتكبير. على الزر الأخضر مع شرطة للتصغير، أو على الأسهم الخضراء للخرائط المجاورة.


METAR-TAF: